Time;durP1;ratioP1;P1;durP2;ratioP2;P2;SDS_P1;SDS_P2;PMS_P1;PMS_P2;Temp;Humidity;BMP_temperature;BMP_pressure;BME280_temperature;BME280_humidity;BME280_pressure;Samples;Min_cycle;Max_cycle;Signal;HPM_P1;HPM_P2
2023/10/06 00:09:54;;;;;;;;;;;12.10;99.90;;;;;;6746607;88;20529;-80
2023/10/06 00:19:56;;;;;;;;;;;12.00;99.90;;;;;;6747909;88;20087;-80
2023/10/06 00:29:57;;;;;;;;;;;12.00;99.90;;;;;;6749869;88;20050;-80
2023/10/06 00:39:58;;;;;;;;;;;11.80;99.90;;;;;;6742826;88;20078;-79
2023/10/06 00:49:59;;;;;;;;;;;11.80;99.90;;;;;;6744109;88;20480;-81
2023/10/06 00:59:59;;;;;;;;;;;11.70;99.90;;;;;;6744885;88;20129;-79
2023/10/06 01:10:07;;;;;;;;;;;11.60;99.90;;;;;;6742668;88;20066;-80
2023/10/06 01:20:10;;;;;;;;;;;11.50;99.90;;;;;;6749712;88;20119;-80
2023/10/06 01:30:17;;;;;;;;;;;11.40;99.90;;;;;;6748719;88;20053;-80
2023/10/06 01:50:27;;;;;;;;;;;11.40;99.90;;;;;;6756970;88;20095;-80
2023/10/06 02:00:33;;;;;;;;;;;11.40;99.90;;;;;;6745667;88;20537;-80
2023/10/06 02:20:37;;;;;;;;;;;11.40;99.90;;;;;;6730636;88;20821;-80
2023/10/06 02:30:39;;;;;;;;;;;11.40;99.90;;;;;;6730318;88;20072;-80
2023/10/06 02:40:45;;;;;;;;;;;11.30;99.90;;;;;;6730162;88;20167;-80
2023/10/06 02:50:46;;;;;;;;;;;11.30;99.90;;;;;;6725375;88;20117;-80
2023/10/06 03:00:50;;;;;;;;;;;11.30;99.90;;;;;;6729856;88;20213;-80
2023/10/06 03:10:50;;;;;;;;;;;11.20;99.90;;;;;;6730288;88;20174;-80
2023/10/06 03:20:53;;;;;;;;;;;11.00;99.90;;;;;;6729437;88;20088;-79
2023/10/06 03:30:55;;;;;;;;;;;11.00;99.90;;;;;;6729998;88;20165;-79
2023/10/06 03:50:56;;;;;;;;;;;10.80;99.90;;;;;;6728882;88;20062;-80
2023/10/06 04:00:58;;;;;;;;;;;10.80;99.90;;;;;;6725110;88;20073;-80
2023/10/06 04:10:58;;;;;;;;;;;10.80;99.90;;;;;;6728961;88;20098;-80
2023/10/06 04:20:59;;;;;;;;;;;10.80;99.90;;;;;;6729106;88;20053;-80
2023/10/06 04:31:01;;;;;;;;;;;10.80;99.90;;;;;;6728310;88;20084;-79
2023/10/06 04:41:02;;;;;;;;;;;10.80;99.90;;;;;;6727479;88;20520;-80
2023/10/06 04:51:03;;;;;;;;;;;10.70;99.90;;;;;;6728274;88;20582;-80
2023/10/06 05:01:04;;;;;;;;;;;10.60;99.90;;;;;;6729662;88;20143;-79
2023/10/06 05:11:06;;;;;;;;;;;10.40;99.90;;;;;;6724351;88;20141;-79
2023/10/06 05:21:06;;;;;;;;;;;10.20;99.90;;;;;;6723362;88;20091;-80
2023/10/06 05:31:07;;;;;;;;;;;10.10;99.90;;;;;;6726110;88;20058;-79
2023/10/06 05:41:11;;;;;;;;;;;10.10;99.90;;;;;;6728172;88;20712;-79
2023/10/06 05:51:14;;;;;;;;;;;10.00;99.90;;;;;;6728133;88;20043;-79
2023/10/06 06:01:18;;;;;;;;;;;10.00;99.90;;;;;;6725451;88;20083;-78
2023/10/06 06:11:19;;;;;;;;;;;10.10;99.90;;;;;;6728060;88;20064;-79
2023/10/06 06:21:24;;;;;;;;;;;10.20;99.90;;;;;;6727000;88;20049;-79
2023/10/06 06:31:25;;;;;;;;;;;10.30;99.90;;;;;;6727001;88;20067;-81
2023/10/06 06:41:27;;;;;;;;;;;10.50;99.90;;;;;;6728392;88;20055;-81
2023/10/06 06:51:31;;;;;;;;;;;10.70;99.90;;;;;;6728946;88;20098;-80
2023/10/06 07:01:33;;;;;;;;;;;11.00;99.90;;;;;;6729670;88;20156;-80
2023/10/06 07:11:34;;;;;;;;;;;11.20;99.90;;;;;;6727139;88;20268;-81
2023/10/06 07:21:34;;;;;;;;;;;11.50;99.90;;;;;;6727472;88;20063;-80
2023/10/06 07:31:35;;;;;;;;;;;12.00;99.90;;;;;;6725659;88;20534;-80
2023/10/06 07:41:36;;;;;;;;;;;12.40;99.90;;;;;;6720808;88;20158;-79
2023/10/06 07:51:38;;;;;;;;;;;12.70;99.90;;;;;;6717601;88;20096;-78
2023/10/06 08:01:39;;;;;;;;;;;13.10;99.90;;;;;;6717169;88;20076;-79
2023/10/06 08:11:39;;;;;;;;;;;13.40;99.90;;;;;;6729177;88;20762;-80
2023/10/06 08:21:41;;;;;;;;;;;13.70;99.90;;;;;;6718358;88;20067;-80
2023/10/06 08:31:42;;;;;;;;;;;13.90;99.90;;;;;;6716421;88;20043;-79
2023/10/06 08:41:43;;;;;;;;;;;15.00;99.90;;;;;;6717728;88;20534;-80
2023/10/06 08:51:45;;;;;;;;;;;15.50;99.90;;;;;;6733868;88;20219;-79
2023/10/06 09:01:45;;;;;;;;;;;15.40;99.90;;;;;;6717227;88;20062;-80
2023/10/06 09:11:46;;;;;;;;;;;15.50;99.90;;;;;;6721143;88;20073;-80
2023/10/06 09:22:02;;;;;;;;;;;16.80;99.90;;;;;;6720063;88;20058;-80
2023/10/06 09:32:20;;;;;;;;;;;17.90;99.90;;;;;;6716835;88;20058;-80
2023/10/06 09:42:21;;;;;;;;;;;18.80;99.90;;;;;;6736825;88;20128;-80
2023/10/06 09:52:24;;;;;;;;;;;19.40;99.90;;;;;;6716207;88;20075;-80
2023/10/06 10:02:25;;;;;;;;;;;20.00;99.90;;;;;;6717270;88;20878;-80
2023/10/06 10:12:37;;;;;;;;;;;20.20;99.90;;;;;;6705638;88;20161;-80
2023/10/06 10:22:40;;;;;;;;;;;20.80;99.90;;;;;;6717234;88;20087;-80
2023/10/06 10:32:41;;;;;;;;;;;21.10;99.90;;;;;;6718911;88;20129;-79
2023/10/06 10:42:42;;;;;;;;;;;22.20;99.90;;;;;;6715178;88;20478;-80
2023/10/06 10:52:43;;;;;;;;;;;22.40;99.90;;;;;;6705115;88;20064;-79
2023/10/06 11:03:01;;;;;;;;;;;23.60;99.90;;;;;;6710439;88;20070;-78
2023/10/06 11:13:19;;;;;;;;;;;23.80;99.90;;;;;;6709268;88;20067;-77
2023/10/06 11:23:19;;;;;;;;;;;24.90;98.50;;;;;;6709133;88;20070;-77
2023/10/06 11:33:20;;;;;;;;;;;25.10;97.10;;;;;;6714305;88;20640;-78
2023/10/06 11:43:21;;;;;;;;;;;25.70;96.50;;;;;;6712661;88;20489;-78
2023/10/06 11:53:23;;;;;;;;;;;23.90;96.90;;;;;;6730753;88;20073;-76
2023/10/06 12:03:34;;;;;;;;;;;24.60;96.30;;;;;;6717036;88;20584;-79
2023/10/06 12:13:36;;;;;;;;;;;23.90;95.90;;;;;;6718699;88;20053;-78
2023/10/06 12:23:37;;;;;;;;;;;24.10;95.80;;;;;;6710958;88;20125;-78
2023/10/06 12:33:38;;;;;;;;;;;23.10;97.10;;;;;;6710240;88;20800;-78
2023/10/06 12:43:39;;;;;;;;;;;23.20;95.80;;;;;;6721533;88;20069;-81
2023/10/06 12:53:40;;;;;;;;;;;24.00;95.30;;;;;;6718354;88;20563;-80
2023/10/06 13:03:40;;;;;;;;;;;23.80;94.90;;;;;;6711365;88;20200;-80
2023/10/06 13:13:46;;;;;;;;;;;23.40;95.80;;;;;;6710164;88;20201;-79
2023/10/06 13:23:49;;;;;;;;;;;23.50;95.50;;;;;;6706839;88;20083;-78
2023/10/06 13:33:51;;;;;;;;;;;23.80;95.40;;;;;;6714494;88;20519;-77
2023/10/06 13:43:52;;;;;;;;;;;25.10;95.70;;;;;;6706635;88;20075;-76
2023/10/06 13:53:52;;;;;;;;;;;24.10;94.30;;;;;;6706610;88;20537;-77
2023/10/06 14:03:53;;;;;;;;;;;24.10;97.40;;;;;;6710783;88;20072;-77
2023/10/06 14:13:56;;;;;;;;;;;23.80;99.90;;;;;;6714204;88;20078;-80
2023/10/06 14:23:57;;;;;;;;;;;23.00;99.30;;;;;;6717736;88;20168;-77
2023/10/06 14:34:20;;;;;;;;;;;22.60;99.80;;;;;;6714265;88;20124;-76
2023/10/06 14:54:38;;;;;;;;;;;22.60;98.40;;;;;;6709493;88;20047;-78
2023/10/06 15:04:39;;;;;;;;;;;22.20;98.50;;;;;;6710750;88;20162;-76
2023/10/06 15:14:39;;;;;;;;;;;22.30;98.50;;;;;;6708870;88;20186;-77
2023/10/06 15:24:39;;;;;;;;;;;22.30;98.60;;;;;;6708644;88;20578;-76
2023/10/06 15:34:40;;;;;;;;;;;22.10;99.00;;;;;;6708721;88;20058;-75
2023/10/06 15:44:41;;;;;;;;;;;21.80;99.10;;;;;;6709044;88;20530;-75
2023/10/06 15:54:42;;;;;;;;;;;21.20;98.40;;;;;;6708985;88;20068;-74
2023/10/06 16:04:43;;;;;;;;;;;20.80;99.50;;;;;;6709830;88;20062;-75
2023/10/06 16:14:43;;;;;;;;;;;20.70;99.90;;;;;;6706774;88;20089;-75
2023/10/06 16:24:44;;;;;;;;;;;20.50;99.90;;;;;;6703050;88;20058;-76
2023/10/06 16:34:45;;;;;;;;;;;20.00;99.90;;;;;;6711373;88;20071;-75
2023/10/06 16:44:47;;;;;;;;;;;19.50;99.90;;;;;;6701393;88;20109;-75
2023/10/06 16:54:47;;;;;;;;;;;18.80;99.90;;;;;;6707713;88;20052;-75
2023/10/06 17:04:47;;;;;;;;;;;18.30;99.90;;;;;;6698217;88;20085;-79
2023/10/06 17:14:50;;;;;;;;;;;18.10;99.90;;;;;;6720148;88;20137;-81
2023/10/06 17:24:51;;;;;;;;;;;17.80;99.90;;;;;;6712667;88;20050;-79
2023/10/06 17:34:52;;;;;;;;;;;17.50;99.90;;;;;;6717158;88;20118;-80
2023/10/06 17:44:52;;;;;;;;;;;17.20;99.90;;;;;;6717792;88;20055;-80
2023/10/06 17:54:53;;;;;;;;;;;17.10;99.90;;;;;;6723640;88;20063;-79
2023/10/06 18:04:54;;;;;;;;;;;16.90;99.90;;;;;;6728983;88;20138;-79
2023/10/06 18:14:54;;;;;;;;;;;16.80;99.90;;;;;;6726270;88;20082;-80
2023/10/06 18:24:54;;;;;;;;;;;16.70;99.90;;;;;;6729962;88;20133;-81
2023/10/06 18:34:55;;;;;;;;;;;16.60;99.90;;;;;;6733611;88;20057;-80
2023/10/06 18:44:56;;;;;;;;;;;16.60;99.90;;;;;;6738415;88;20149;-82
2023/10/06 18:54:57;;;;;;;;;;;16.40;99.90;;;;;;6733601;88;20084;-81
2023/10/06 19:04:58;;;;;;;;;;;16.10;99.90;;;;;;6731795;88;20070;-81
2023/10/06 19:14:58;;;;;;;;;;;15.80;99.90;;;;;;6734896;88;20103;-82
2023/10/06 19:24:59;;;;;;;;;;;15.50;99.90;;;;;;6729163;88;20107;-81
2023/10/06 19:35:00;;;;;;;;;;;15.30;99.90;;;;;;6734857;88;20594;-81
2023/10/06 19:45:00;;;;;;;;;;;15.20;99.90;;;;;;6731005;88;20086;-81
2023/10/06 19:55:00;;;;;;;;;;;15.10;99.90;;;;;;6738063;88;20077;-80
2023/10/06 20:05:01;;;;;;;;;;;15.20;99.90;;;;;;6735493;88;20129;-83
2023/10/06 20:15:04;;;;;;;;;;;14.90;99.90;;;;;;6733796;88;20194;-82
2023/10/06 20:25:06;;;;;;;;;;;14.50;99.90;;;;;;6736172;88;20026;-82
2023/10/06 20:35:07;;;;;;;;;;;14.30;99.90;;;;;;6733505;88;20075;-82
2023/10/06 20:45:08;;;;;;;;;;;14.10;99.90;;;;;;6746244;88;20064;-83
2023/10/06 20:55:10;;;;;;;;;;;14.00;99.90;;;;;;6746426;88;20187;-83
2023/10/06 21:05:11;;;;;;;;;;;13.80;99.90;;;;;;6742801;88;20076;-79
2023/10/06 21:15:13;;;;;;;;;;;13.70;99.90;;;;;;6739331;88;20090;-81
2023/10/06 21:25:14;;;;;;;;;;;13.70;99.90;;;;;;6740286;88;20053;-82
2023/10/06 21:35:15;;;;;;;;;;;13.80;99.90;;;;;;6735185;88;20091;-81
2023/10/06 21:45:16;;;;;;;;;;;13.70;99.90;;;;;;6733127;88;20035;-82
2023/10/06 21:55:17;;;;;;;;;;;13.50;99.90;;;;;;6742894;88;20070;-81
2023/10/06 22:05:17;;;;;;;;;;;13.40;99.90;;;;;;6747107;88;20624;-82
2023/10/06 22:15:19;;;;;;;;;;;13.30;99.90;;;;;;6735253;88;20576;-81
2023/10/06 22:25:21;;;;;;;;;;;13.30;99.90;;;;;;6744153;88;20053;-81
2023/10/06 22:35:22;;;;;;;;;;;13.30;99.90;;;;;;6752337;88;20023;-81
2023/10/06 22:45:23;;;;;;;;;;;13.00;99.90;;;;;;6735043;88;20142;-80
2023/10/06 22:55:24;;;;;;;;;;;12.90;99.90;;;;;;6745693;88;20045;-80
2023/10/06 23:05:24;;;;;;;;;;;12.80;99.90;;;;;;6747043;88;20056;-82
2023/10/06 23:15:31;;;;;;;;;;;12.70;99.90;;;;;;6740270;88;20615;-81
2023/10/06 23:25:36;;;;;;;;;;;12.50;99.90;;;;;;6761387;88;20043;-83
2023/10/06 23:35:36;;;;;;;;;;;12.40;99.90;;;;;;6725031;88;20059;-82
2023/10/06 23:45:37;;;;;;;;;;;12.40;99.90;;;;;;6707350;88;20036;-82
2023/10/06 23:55:42;;;;;;;;;;;12.50;99.90;;;;;;6728195;88;20063;-82
